createdAt,value
2023-08-22T00:01:57.962Z,100.00
2023-08-22T00:04:28.381Z,100.00
2023-08-22T00:06:57.491Z,100.00
2023-08-22T00:09:28.260Z,100.00
2023-08-22T00:11:56.766Z,100.00
2023-08-22T00:14:25.886Z,100.00
2023-08-22T00:16:56.095Z,100.00
2023-08-22T00:19:24.700Z,100.00
2023-08-22T00:21:52.573Z,100.00
2023-08-22T00:24:21.397Z,100.00
2023-08-22T00:26:50.691Z,100.00
2023-08-22T00:29:21.834Z,100.00
2023-08-22T00:31:49.967Z,100.00
2023-08-22T00:34:18.407Z,100.00
2023-08-22T00:36:46.704Z,100.00
2023-08-22T00:39:14.955Z,100.00
2023-08-22T00:41:43.335Z,100.00
2023-08-22T00:44:12.838Z,100.00
2023-08-22T00:46:41.436Z,100.00
2023-08-22T00:49:11.596Z,100.00
2023-08-22T00:51:40.957Z,100.00
2023-08-22T00:54:09.737Z,100.00
2023-08-22T00:56:39.252Z,100.00
2023-08-22T00:59:08.333Z,100.00
2023-08-22T01:01:38.243Z,100.00
2023-08-22T01:04:09.572Z,100.00
2023-08-22T01:06:48.989Z,100.00
2023-08-22T01:09:28.396Z,100.00
2023-08-22T01:12:04.836Z,100.00
2023-08-22T01:14:38.799Z,100.00
2023-08-22T01:17:13.003Z,100.00
2023-08-22T01:19:43.657Z,100.00
2023-08-22T01:22:16.400Z,100.00
2023-08-22T01:24:44.708Z,100.00
2023-08-22T01:27:16.959Z,100.00
2023-08-22T01:30:02.255Z,100.00
2023-08-22T01:32:36.231Z,100.00
2023-08-22T01:35:08.099Z,100.00
2023-08-22T01:37:38.960Z,100.00
2023-08-22T01:40:11.477Z,100.00
2023-08-22T01:42:41.491Z,100.00
2023-08-22T01:45:11.532Z,100.00
2023-08-22T01:47:40.125Z,100.00
2023-08-22T01:50:12.539Z,100.00
2023-08-22T01:52:42.462Z,100.00
2023-08-22T01:55:12.697Z,100.00
2023-08-22T01:57:41.319Z,100.00
2023-08-22T02:00:17.101Z,100.00
2023-08-22T02:02:46.036Z,100.00
2023-08-22T02:05:14.282Z,100.00
2023-08-22T02:07:46.875Z,100.00
2023-08-22T02:10:15.240Z,100.00
2023-08-22T02:12:43.996Z,100.00
2023-08-22T02:15:12.744Z,100.00
2023-08-22T02:17:42.222Z,100.00
2023-08-22T02:20:11.994Z,100.00
2023-08-22T02:22:41.504Z,100.00
2023-08-22T02:25:12.503Z,100.00
2023-08-22T02:27:40.851Z,100.00
2023-08-22T02:30:13.259Z,100.00
2023-08-22T02:32:41.944Z,100.00
2023-08-22T02:35:10.777Z,100.00
2023-08-22T02:37:42.332Z,100.00
2023-08-22T02:40:13.735Z,100.00
2023-08-22T02:42:42.881Z,100.00
2023-08-22T02:45:12.342Z,100.00
2023-08-22T02:47:40.747Z,100.00
2023-08-22T02:50:10.190Z,100.00
2023-08-22T02:52:38.734Z,100.00
2023-08-22T02:55:09.617Z,100.00
2023-08-22T02:57:39.378Z,100.00
2023-08-22T03:00:12.482Z,100.00
2023-08-22T03:02:41.941Z,100.00
2023-08-22T03:05:14.109Z,100.00
2023-08-22T03:07:43.743Z,100.00
2023-08-22T03:10:15.320Z,100.00
2023-08-22T03:12:48.169Z,100.00
2023-08-22T03:15:19.249Z,100.00
2023-08-22T03:17:50.097Z,100.00
2023-08-22T03:20:21.551Z,100.00
2023-08-22T03:22:53.208Z,100.00
2023-08-22T03:25:22.427Z,100.00
2023-08-22T03:27:56.789Z,100.00
2023-08-22T03:30:26.046Z,100.00
2023-08-22T03:32:54.273Z,100.00
2023-08-22T03:35:22.707Z,100.00
2023-08-22T03:37:51.062Z,100.00
2023-08-22T03:40:19.542Z,100.00
2023-08-22T03:42:49.604Z,100.00
2023-08-22T03:45:19.524Z,100.00
2023-08-22T03:47:48.969Z,100.00
2023-08-22T03:50:19.325Z,100.00
2023-08-22T03:52:50.412Z,100.00
2023-08-22T03:55:18.642Z,100.00
2023-08-22T03:57:49.945Z,100.00
2023-08-22T04:00:22.130Z,100.00
2023-08-22T04:02:57.692Z,100.00
2023-08-22T04:05:30.897Z,100.00
2023-08-22T04:07:59.457Z,100.00
2023-08-22T04:10:27.867Z,100.00
2023-08-22T04:12:57.138Z,100.00
2023-08-22T04:15:26.751Z,100.00
2023-08-22T04:17:54.662Z,100.00
2023-08-22T04:20:25.362Z,100.00
2023-08-22T04:22:56.721Z,100.00
2023-08-22T04:25:26.006Z,100.00
2023-08-22T04:28:00.913Z,100.00
2023-08-22T04:30:31.385Z,100.00
2023-08-22T04:33:01.051Z,100.00
2023-08-22T04:35:32.832Z,100.00
2023-08-22T04:38:02.199Z,100.00
2023-08-22T04:40:31.206Z,100.00
2023-08-22T04:43:07.267Z,100.00
2023-08-22T04:45:45.604Z,100.00
2023-08-22T04:48:16.296Z,100.00
2023-08-22T04:50:45.004Z,100.00
2023-08-22T04:53:14.210Z,100.00
2023-08-22T04:55:44.483Z,100.00
2023-08-22T04:58:13.002Z,100.00
2023-08-22T05:00:43.642Z,100.00
2023-08-22T05:03:16.507Z,100.00
2023-08-22T05:05:48.499Z,100.00
2023-08-22T05:08:16.714Z,100.00
2023-08-22T05:10:45.973Z,100.00
2023-08-22T05:13:16.012Z,100.00
2023-08-22T05:15:52.416Z,100.00
2023-08-22T05:18:22.933Z,100.00
2023-08-22T05:20:54.198Z,100.00
2023-08-22T05:23:25.106Z,100.00
2023-08-22T05:25:54.789Z,100.00
2023-08-22T05:28:48.951Z,100.00
2023-08-22T05:31:22.437Z,100.00
2023-08-22T05:33:52.612Z,100.00
2023-08-22T05:36:23.123Z,100.00
2023-08-22T05:38:54.137Z,100.00
2023-08-22T05:41:23.331Z,100.00
2023-08-22T05:43:56.439Z,100.00
2023-08-22T05:46:29.098Z,100.00
2023-08-22T05:48:57.832Z,100.00
2023-08-22T05:51:26.376Z,100.00
2023-08-22T05:54:00.065Z,100.00
2023-08-22T05:56:29.635Z,100.00
2023-08-22T05:58:57.828Z,100.00
2023-08-22T06:01:28.252Z,100.00
2023-08-22T06:03:57.773Z,100.00
2023-08-22T06:06:27.369Z,100.00
2023-08-22T06:08:58.222Z,100.00
2023-08-22T06:11:26.263Z,100.00
2023-08-22T06:13:57.209Z,100.00
2023-08-22T06:16:25.352Z,100.00
2023-08-22T06:18:53.691Z,100.00
2023-08-22T06:21:23.254Z,100.00
2023-08-22T06:23:51.939Z,100.00
2023-08-22T06:26:21.958Z,100.00
2023-08-22T06:28:52.989Z,100.00
2023-08-22T06:31:21.587Z,100.00
2023-08-22T06:33:50.225Z,100.00
2023-08-22T06:36:20.953Z,100.00
2023-08-22T06:38:50.785Z,100.00
2023-08-22T06:41:19.519Z,100.00
2023-08-22T06:43:48.961Z,100.00
2023-08-22T06:46:23.854Z,100.00
2023-08-22T06:48:58.800Z,100.00
2023-08-22T06:51:27.619Z,100.00
2023-08-22T06:53:57.217Z,100.00
2023-08-22T06:56:28.447Z,100.00
2023-08-22T06:58:56.499Z,100.00
2023-08-22T07:01:24.746Z,100.00
2023-08-22T07:04:06.347Z,100.00
2023-08-22T07:06:42.097Z,100.00
2023-08-22T07:09:13.151Z,100.00
2023-08-22T07:14:15.720Z,100.00
2023-08-22T07:16:44.277Z,100.00
2023-08-22T07:19:24.563Z,100.00
2023-08-22T07:22:00.585Z,100.00
2023-08-22T07:24:30.122Z,100.00
2023-08-22T07:27:01.333Z,100.00
2023-08-22T07:29:30.212Z,100.00
2023-08-22T07:32:01.473Z,100.00
2023-08-22T07:34:32.270Z,100.00
2023-08-22T07:37:02.786Z,100.00
2023-08-22T07:39:35.486Z,100.00
2023-08-22T07:42:05.339Z,100.00
2023-08-22T07:44:38.358Z,100.00
2023-08-22T07:47:10.047Z,100.00
2023-08-22T07:49:42.656Z,100.00
2023-08-22T07:52:13.081Z,100.00
2023-08-22T07:54:46.013Z,100.00
2023-08-22T07:57:19.338Z,100.00
2023-08-22T07:59:47.991Z,100.00
2023-08-22T08:02:18.766Z,100.00
2023-08-22T08:04:51.381Z,100.00
2023-08-22T08:07:21.834Z,100.00
2023-08-22T08:09:52.751Z,100.00
2023-08-22T08:12:20.919Z,100.00
2023-08-22T08:14:48.933Z,100.00
2023-08-22T08:17:24.650Z,100.00
2023-08-22T08:19:57.185Z,100.00
2023-08-22T08:22:26.019Z,100.00
2023-08-22T08:24:58.181Z,100.00
2023-08-22T08:27:26.554Z,100.00
2023-08-22T08:29:56.568Z,100.00
2023-08-22T08:32:30.452Z,100.00
2023-08-22T08:35:07.351Z,100.00
2023-08-22T08:37:40.845Z,100.00
2023-08-22T08:40:15.818Z,100.00
2023-08-22T08:42:44.906Z,100.00
2023-08-22T08:45:20.849Z,100.00
2023-08-22T08:47:53.390Z,100.00
2023-08-22T08:50:26.612Z,100.00
2023-08-22T08:52:56.069Z,100.00
2023-08-22T08:55:52.472Z,100.00
2023-08-22T08:58:23.687Z,100.00
2023-08-22T09:00:59.841Z,100.00
2023-08-22T09:03:33.450Z,100.00
2023-08-22T09:06:02.252Z,100.00
2023-08-22T09:08:40.829Z,100.00
2023-08-22T09:11:29.031Z,100.00
2023-08-22T09:14:02.197Z,100.00
2023-08-22T09:16:39.552Z,100.00
2023-08-22T09:19:11.170Z,100.00
2023-08-22T09:21:59.914Z,100.00
2023-08-22T09:24:32.061Z,100.00
2023-08-22T09:27:06.340Z,100.00
2023-08-22T09:29:52.184Z,100.00
2023-08-22T09:32:23.952Z,100.00
2023-08-22T09:35:02.156Z,100.00
2023-08-22T09:37:33.175Z,100.00
2023-08-22T09:40:11.917Z,100.00
2023-08-22T09:42:43.587Z,100.00
2023-08-22T09:45:16.891Z,100.00
2023-08-22T09:47:50.595Z,100.00
2023-08-22T09:50:22.789Z,100.00
2023-08-22T09:52:53.455Z,100.00
2023-08-22T09:55:22.969Z,100.00
2023-08-22T09:57:58.260Z,100.00
2023-08-22T10:00:31.842Z,100.00
2023-08-22T10:03:05.156Z,100.00
2023-08-22T10:05:36.809Z,100.00
2023-08-22T10:08:05.885Z,100.00
2023-08-22T10:10:34.832Z,100.00
2023-08-22T10:13:06.525Z,100.00
2023-08-22T10:15:36.602Z,100.00
2023-08-22T10:18:06.105Z,100.00
2023-08-22T10:20:39.780Z,100.00
2023-08-22T10:23:17.553Z,100.00
2023-08-22T10:25:49.510Z,100.00
2023-08-22T10:28:21.626Z,100.00
2023-08-22T10:31:07.987Z,100.00
2023-08-22T10:33:36.265Z,100.00
2023-08-22T10:36:11.169Z,100.00
2023-08-22T10:38:59.023Z,100.00
2023-08-22T10:41:45.849Z,100.00
2023-08-22T10:44:28.284Z,100.00
2023-08-22T10:47:00.700Z,100.00
2023-08-22T10:49:32.008Z,100.00
2023-08-22T10:52:07.686Z,100.00
2023-08-22T10:54:36.255Z,100.00
2023-08-22T10:57:20.157Z,100.00
2023-08-22T11:00:09.057Z,100.00
2023-08-22T11:02:38.907Z,100.00
2023-08-22T11:05:12.681Z,100.00
2023-08-22T11:07:51.912Z,100.00
2023-08-22T11:10:24.217Z,100.00
2023-08-22T11:12:58.048Z,100.00
2023-08-22T11:15:27.653Z,100.00
2023-08-22T11:17:59.473Z,100.00
2023-08-22T11:20:31.289Z,100.00
2023-08-22T11:23:05.214Z,100.00
2023-08-22T11:25:39.552Z,100.00
2023-08-22T11:28:33.199Z,100.00
2023-08-22T11:31:06.906Z,100.00
2023-08-22T11:33:38.668Z,100.00
2023-08-22T11:36:10.147Z,100.00
2023-08-22T11:38:38.440Z,100.00
2023-08-22T11:41:09.260Z,100.00
2023-08-22T11:43:41.872Z,100.00
2023-08-22T11:46:17.288Z,100.00
2023-08-22T11:48:45.692Z,100.00
2023-08-22T11:51:22.629Z,100.00
2023-08-22T11:53:53.304Z,100.00
2023-08-22T11:56:21.965Z,100.00
2023-08-22T11:58:56.967Z,100.00
2023-08-22T12:01:29.714Z,100.00
2023-08-22T12:03:58.910Z,100.00
2023-08-22T12:06:27.159Z,100.00
2023-08-22T12:09:02.317Z,100.00
2023-08-22T12:11:36.377Z,100.00
2023-08-22T12:14:04.706Z,100.00
2023-08-22T12:16:34.350Z,100.00
2023-08-22T12:19:12.362Z,100.00
2023-08-22T12:21:40.369Z,100.00
2023-08-22T12:24:10.551Z,100.00
2023-08-22T12:26:38.725Z,100.00
2023-08-22T12:29:09.534Z,100.00
2023-08-22T12:31:42.005Z,100.00
2023-08-22T12:34:13.028Z,100.00
2023-08-22T12:36:43.978Z,100.00
2023-08-22T12:39:15.086Z,100.00
2023-08-22T12:41:48.404Z,100.00
2023-08-22T12:44:16.677Z,100.00
2023-08-22T12:46:55.521Z,100.00
2023-08-22T12:49:25.779Z,100.00
2023-08-22T12:51:55.197Z,100.00
2023-08-22T12:54:26.025Z,100.00
2023-08-22T12:56:58.586Z,100.00
2023-08-22T12:59:28.480Z,100.00
2023-08-22T13:02:03.830Z,100.00
2023-08-22T13:04:38.986Z,100.00
2023-08-22T13:07:10.742Z,100.00
2023-08-22T13:09:41.512Z,100.00
2023-08-22T13:12:12.143Z,100.00
2023-08-22T13:14:40.329Z,94.13
2023-08-22T13:17:12.149Z,90.19
2023-08-22T13:19:43.198Z,92.82
2023-08-22T13:22:13.857Z,90.44
2023-08-22T13:24:46.522Z,86.32
2023-08-22T13:27:15.703Z,87.25
2023-08-22T13:29:43.984Z,86.39
2023-08-22T13:32:14.724Z,91.30
2023-08-22T13:34:44.346Z,92.65
2023-08-22T13:37:15.509Z,100.00
2023-08-22T13:39:44.899Z,97.52
2023-08-22T13:42:12.957Z,91.71
2023-08-22T13:44:45.130Z,91.69
2023-08-22T13:47:15.301Z,81.40
2023-08-22T13:49:43.846Z,88.60
2023-08-22T13:52:11.767Z,83.42
2023-08-22T13:54:41.462Z,84.21
2023-08-22T13:57:12.608Z,82.09
2023-08-22T13:59:42.054Z,79.35
2023-08-22T14:02:11.264Z,80.28
2023-08-22T14:04:41.152Z,81.41
2023-08-22T14:07:09.476Z,85.20
2023-08-22T14:09:37.941Z,88.23
2023-08-22T14:12:06.649Z,83.55
2023-08-22T14:14:36.776Z,75.51
2023-08-22T14:17:05.929Z,77.08
2023-08-22T14:19:35.467Z,80.01
2023-08-22T14:22:04.917Z,79.50
2023-08-22T14:24:32.937Z,72.46
2023-08-22T14:27:00.872Z,87.12
2023-08-22T14:29:31.644Z,75.00
2023-08-22T14:32:00.680Z,73.61
2023-08-22T14:34:32.234Z,73.77
2023-08-22T14:37:12.562Z,71.48
2023-08-22T14:39:55.561Z,67.81
2023-08-22T14:42:25.710Z,64.55
2023-08-22T14:44:54.007Z,58.58
2023-08-22T14:47:23.248Z,64.13
2023-08-22T14:49:51.450Z,61.96
2023-08-22T14:52:20.620Z,81.37
2023-08-22T14:54:50.187Z,73.18
2023-08-22T14:57:21.014Z,67.47
2023-08-22T14:59:49.334Z,65.54
2023-08-22T15:02:21.753Z,65.33
2023-08-22T15:04:51.754Z,68.20
2023-08-22T15:07:28.792Z,70.94
2023-08-22T15:09:58.413Z,78.94
2023-08-22T15:12:28.412Z,78.07
2023-08-22T15:15:01.105Z,81.79
2023-08-22T15:17:35.157Z,85.97
2023-08-22T15:20:06.653Z,89.27
2023-08-22T15:22:38.649Z,91.49
2023-08-22T15:25:09.654Z,94.92
2023-08-22T15:27:39.748Z,100.00
2023-08-22T15:30:13.129Z,100.00
2023-08-22T15:32:41.921Z,88.11
2023-08-22T15:35:13.867Z,87.47
2023-08-22T15:37:47.720Z,84.83
2023-08-22T15:40:17.241Z,82.01
2023-08-22T15:42:46.533Z,75.53
2023-08-22T15:45:14.826Z,72.45
2023-08-22T15:47:43.417Z,71.61
2023-08-22T15:50:13.271Z,65.58
2023-08-22T15:52:44.460Z,68.70
2023-08-22T15:55:12.953Z,63.32
2023-08-22T15:57:44.705Z,58.10
2023-08-22T16:00:15.205Z,55.33
2023-08-22T16:02:46.892Z,52.40
2023-08-22T16:05:15.616Z,53.64
2023-08-22T16:07:50.504Z,52.28
2023-08-22T16:10:19.043Z,68.68
2023-08-22T16:12:48.556Z,58.80
2023-08-22T16:15:27.875Z,53.94
2023-08-22T16:17:56.410Z,52.39
2023-08-22T16:20:26.189Z,51.82
2023-08-22T16:22:54.829Z,50.08
2023-08-22T16:25:25.526Z,53.01
2023-08-22T16:27:53.835Z,52.96
2023-08-22T16:30:26.895Z,72.66
2023-08-22T16:32:55.346Z,55.85
2023-08-22T16:35:23.315Z,57.00
2023-08-22T16:37:55.884Z,59.08
2023-08-22T16:40:24.203Z,63.08
2023-08-22T16:42:52.505Z,63.75
2023-08-22T16:45:21.524Z,66.63
2023-08-22T16:47:54.810Z,68.13
2023-08-22T16:50:23.365Z,70.33
2023-08-22T16:52:54.501Z,68.05
2023-08-22T16:55:26.319Z,65.77
2023-08-22T16:57:58.312Z,64.91
2023-08-22T17:00:30.314Z,67.65
2023-08-22T17:02:59.858Z,70.00
2023-08-22T17:05:30.687Z,74.62
2023-08-22T17:08:01.248Z,75.54
2023-08-22T17:10:30.360Z,78.08
2023-08-22T17:13:02.027Z,77.30
2023-08-22T17:15:31.604Z,78.85
2023-08-22T17:18:03.812Z,81.45
2023-08-22T17:20:32.398Z,84.36
2023-08-22T17:23:01.630Z,86.70
2023-08-22T17:25:29.658Z,88.42
2023-08-22T17:28:01.980Z,87.09
2023-08-22T17:30:31.581Z,86.88
2023-08-22T17:32:59.571Z,91.17
2023-08-22T17:35:29.211Z,93.12
2023-08-22T17:37:59.233Z,98.36
2023-08-22T17:40:27.820Z,97.90
2023-08-22T17:42:57.909Z,98.03
2023-08-22T17:45:26.608Z,99.85
2023-08-22T17:47:56.050Z,99.56
2023-08-22T17:50:24.232Z,100.00
2023-08-22T17:52:54.969Z,100.00
2023-08-22T17:55:26.133Z,100.00
2023-08-22T17:57:54.116Z,100.00
2023-08-22T18:00:25.392Z,100.00
2023-08-22T18:02:53.426Z,100.00
2023-08-22T18:05:22.148Z,100.00
2023-08-22T18:07:53.900Z,100.00
2023-08-22T18:10:21.994Z,100.00
2023-08-22T18:12:50.976Z,100.00
2023-08-22T18:15:19.264Z,100.00
2023-08-22T18:17:48.300Z,100.00
2023-08-22T18:20:16.432Z,100.00
2023-08-22T18:22:47.003Z,100.00
2023-08-22T18:25:17.130Z,100.00
2023-08-22T18:27:52.087Z,100.00
2023-08-22T18:30:21.914Z,100.00
2023-08-22T18:32:53.287Z,100.00
2023-08-22T18:35:22.426Z,100.00
2023-08-22T18:37:51.145Z,100.00
2023-08-22T18:40:21.380Z,100.00
2023-08-22T18:42:49.285Z,100.00
2023-08-22T18:45:18.137Z,100.00
2023-08-22T18:47:46.691Z,100.00
2023-08-22T18:50:16.091Z,100.00
2023-08-22T18:52:45.928Z,100.00
2023-08-22T18:55:14.624Z,100.00
2023-08-22T18:57:45.515Z,100.00
2023-08-22T19:00:19.844Z,100.00
2023-08-22T19:02:50.920Z,100.00
2023-08-22T19:05:22.378Z,100.00
2023-08-22T19:07:50.921Z,100.00
2023-08-22T19:10:20.109Z,100.00
2023-08-22T19:12:50.238Z,100.00
2023-08-22T19:15:21.020Z,100.00
2023-08-22T19:17:53.199Z,100.00
2023-08-22T19:20:21.414Z,100.00
2023-08-22T19:22:49.863Z,100.00
2023-08-22T19:25:17.917Z,100.00
2023-08-22T19:27:46.796Z,100.00
2023-08-22T19:30:17.901Z,100.00
2023-08-22T19:33:10.665Z,100.00
2023-08-22T19:35:39.148Z,100.00
2023-08-22T19:38:09.120Z,100.00
2023-08-22T19:40:46.330Z,100.00
2023-08-22T19:43:17.254Z,100.00
2023-08-22T19:45:47.398Z,100.00
2023-08-22T19:48:18.048Z,100.00
2023-08-22T19:50:47.257Z,100.00
2023-08-22T19:53:17.167Z,100.00
2023-08-22T19:55:45.646Z,100.00
2023-08-22T19:58:13.913Z,100.00
2023-08-22T20:00:42.906Z,100.00
2023-08-22T20:03:16.080Z,100.00
2023-08-22T20:05:45.431Z,100.00
2023-08-22T20:08:14.126Z,100.00
2023-08-22T20:10:42.353Z,100.00
2023-08-22T20:13:10.353Z,100.00
2023-08-22T20:15:39.665Z,100.00
2023-08-22T20:18:08.139Z,100.00
2023-08-22T20:20:39.247Z,100.00
2023-08-22T20:23:07.852Z,100.00
2023-08-22T20:25:37.735Z,100.00
2023-08-22T20:28:09.352Z,100.00
2023-08-22T20:30:37.550Z,100.00
2023-08-22T20:33:05.827Z,100.00
2023-08-22T20:35:36.807Z,100.00
2023-08-22T20:38:06.148Z,100.00
2023-08-22T20:40:34.375Z,100.00
2023-08-22T20:43:02.963Z,100.00
2023-08-22T20:45:31.144Z,100.00
2023-08-22T20:47:59.239Z,100.00
2023-08-22T20:50:28.218Z,100.00
2023-08-22T20:52:56.533Z,100.00
2023-08-22T20:55:26.589Z,100.00
2023-08-22T20:57:56.451Z,100.00
2023-08-22T21:00:25.284Z,100.00
2023-08-22T21:02:54.586Z,100.00
2023-08-22T21:05:23.053Z,100.00
2023-08-22T21:07:51.625Z,100.00
2023-08-22T21:10:23.174Z,100.00
2023-08-22T21:12:53.191Z,100.00
2023-08-22T21:15:27.197Z,100.00
2023-08-22T21:17:55.558Z,100.00
2023-08-22T21:20:23.649Z,100.00
2023-08-22T21:22:51.821Z,100.00
2023-08-22T21:25:20.390Z,100.00
2023-08-22T21:27:50.631Z,100.00
2023-08-22T21:30:24.708Z,100.00
2023-08-22T21:32:54.369Z,100.00
2023-08-22T21:35:24.945Z,100.00
2023-08-22T21:37:54.147Z,100.00
2023-08-22T21:40:22.446Z,100.00
2023-08-22T21:42:51.000Z,100.00
2023-08-22T21:45:20.538Z,100.00
2023-08-22T21:47:50.368Z,100.00
2023-08-22T21:50:20.883Z,100.00
2023-08-22T21:52:50.545Z,100.00
2023-08-22T21:55:18.938Z,100.00
2023-08-22T21:57:47.725Z,100.00
2023-08-22T22:00:17.099Z,100.00
2023-08-22T22:02:46.965Z,100.00
2023-08-22T22:05:20.884Z,100.00
2023-08-22T22:07:49.568Z,100.00
2023-08-22T22:10:19.033Z,100.00
2023-08-22T22:12:48.765Z,100.00
2023-08-22T22:15:17.857Z,100.00
2023-08-22T22:17:46.320Z,100.00
2023-08-22T22:20:16.161Z,100.00
2023-08-22T22:22:46.823Z,100.00
2023-08-22T22:25:15.249Z,100.00
2023-08-22T22:27:47.000Z,100.00
2023-08-22T22:30:15.935Z,100.00
2023-08-22T22:32:45.619Z,100.00
2023-08-22T22:35:14.203Z,100.00
2023-08-22T22:37:45.179Z,100.00
2023-08-22T22:40:17.561Z,100.00
2023-08-22T22:42:49.907Z,100.00
2023-08-22T22:45:21.616Z,100.00
2023-08-22T22:47:50.263Z,100.00
2023-08-22T22:50:18.846Z,100.00
2023-08-22T22:52:49.338Z,100.00
2023-08-22T22:55:19.676Z,100.00
2023-08-22T22:57:47.959Z,100.00
2023-08-22T23:00:17.910Z,100.00
2023-08-22T23:02:47.235Z,100.00
2023-08-22T23:05:17.352Z,100.00
2023-08-22T23:07:46.583Z,100.00
2023-08-22T23:10:17.048Z,100.00
2023-08-22T23:12:48.039Z,100.00
2023-08-22T23:15:18.525Z,100.00
2023-08-22T23:17:47.571Z,100.00
2023-08-22T23:20:22.313Z,100.00
2023-08-22T23:22:52.081Z,100.00
2023-08-22T23:25:20.708Z,100.00
2023-08-22T23:27:50.953Z,100.00
2023-08-22T23:30:20.925Z,100.00
2023-08-22T23:32:50.869Z,100.00
2023-08-22T23:35:19.780Z,100.00
2023-08-22T23:37:51.224Z,100.00
2023-08-22T23:40:26.119Z,100.00
2023-08-22T23:43:08.929Z,100.00
2023-08-22T23:45:37.506Z,100.00
2023-08-22T23:48:06.371Z,100.00
2023-08-22T23:50:35.081Z,100.00
2023-08-22T23:53:03.926Z,100.00
2023-08-22T23:55:33.796Z,100.00
2023-08-22T23:58:04.270Z,100.00
